Time,TemperatureF,DewpointF,PressureIn,WindDirection,WindDirectionDegrees,WindSpeedMPH,WindSpeedGustMPH,Humidity,HourlyPrecipIn,Conditions,Clouds,dailyrainin,SoftwareType,DateUTC
2013-02-05 01:36:00,53.2,52.0,30.04,NW,309,0.0,0.0,96,0.00,,,0.00,weatherlink.com 1.10,2013-02-05 06:36:00,
2013-02-05 01:55:00,53.6,53.0,30.04,NW,309,0.0,1.0,97,0.00,,,0.00,weatherlink.com 1.10,2013-02-05 06:55:00,
2013-02-05 02:10:00,53.9,53.0,30.04,NW,309,0.0,0.0,96,0.00,,,0.00,weatherlink.com 1.10,2013-02-05 07:10:00,
2013-02-05 02:25:00,53.8,53.0,30.03,NW,309,0.0,0.0,96,0.00,,,0.00,weatherlink.com 1.10,2013-02-05 07:25:00,
2013-02-05 02:40:00,53.4,52.0,30.03,NW,309,0.0,0.0,96,0.00,,,0.00,weatherlink.com 1.10,2013-02-05 07:40:00,
2013-02-05 02:55:00,52.3,52.0,30.03,NW,309,0.0,0.0,97,0.00,,,0.00,weatherlink.com 1.10,2013-02-05 07:55:00,
2013-02-05 03:10:00,52.5,52.0,30.02,NW,309,0.0,0.0,97,0.00,,,0.00,weatherlink.com 1.10,2013-02-05 08:10:00,
2013-02-05 03:25:00,52.6,52.0,30.02,NW,309,0.0,0.0,97,0.00,,,0.00,weatherlink.com 1.10,2013-02-05 08:25:00,
2013-02-05 03:40:00,52.9,52.0,30.02,NW,309,0.0,0.0,97,0.00,,,0.00,weatherlink.com 1.10,2013-02-05 08:40:00,
2013-02-05 03:55:00,52.9,52.0,30.02,NW,309,0.0,0.0,97,0.00,,,0.00,weatherlink.com 1.10,2013-02-05 08:55:00,
2013-02-05 04:10:00,52.3,52.0,30.02,NW,309,0.0,0.0,97,0.00,,,0.00,weatherlink.com 1.10,2013-02-05 09:10:00,
2013-02-05 04:25:00,52.4,52.0,30.02,NW,309,0.0,0.0,98,0.00,,,0.00,weatherlink.com 1.10,2013-02-05 09:25:00,
2013-02-05 04:40:00,52.5,52.0,30.01,NW,309,0.0,0.0,97,0.00,,,0.00,weatherlink.com 1.10,2013-02-05 09:40:00,
2013-02-05 04:55:00,52.1,51.0,30.01,NW,309,0.0,0.0,97,0.00,,,0.00,weatherlink.com 1.10,2013-02-05 09:55:00,
2013-02-05 05:10:00,52.3,52.0,30.01,NW,309,0.0,0.0,98,0.00,,,0.00,weatherlink.com 1.10,2013-02-05 10:10:00,
2013-02-05 05:25:00,51.9,51.0,30.02,NW,309,0.0,0.0,97,0.00,,,0.00,weatherlink.com 1.10,2013-02-05 10:25:00,
2013-02-05 05:40:00,51.7,51.0,30.02,NW,309,0.0,0.0,98,0.00,,,0.00,weatherlink.com 1.10,2013-02-05 10:40:00,
2013-02-05 05:55:00,51.7,51.0,30.02,NW,309,0.0,0.0,98,0.00,,,0.00,weatherlink.com 1.10,2013-02-05 10:55:00,
2013-02-05 06:10:00,51.3,51.0,30.03,NW,309,0.0,0.0,97,0.00,,,0.00,weatherlink.com 1.10,2013-02-05 11:10:00,
2013-02-05 06:25:00,51.2,51.0,30.03,NW,309,0.0,0.0,98,0.00,,,0.00,weatherlink.com 1.10,2013-02-05 11:25:00,
2013-02-05 06:40:00,51.0,51.0,30.04,NW,309,0.0,0.0,98,0.00,,,0.00,weatherlink.com 1.10,2013-02-05 11:40:00,
2013-02-05 06:55:00,50.9,50.0,30.04,NW,309,0.0,0.0,97,0.00,,,0.00,weatherlink.com 1.10,2013-02-05 11:55:00,
2013-02-05 07:10:00,50.8,50.0,30.03,NW,309,0.0,0.0,98,0.00,,,0.00,weatherlink.com 1.10,2013-02-05 12:10:00,
2013-02-05 07:25:00,51.0,51.0,30.04,NW,309,0.0,0.0,98,0.00,,,0.00,weatherlink.com 1.10,2013-02-05 12:25:00,
2013-02-05 07:40:00,52.7,52.0,30.05,NW,311,0.0,0.0,98,0.00,,,0.00,weatherlink.com 1.10,2013-02-05 12:40:00,
2013-02-05 07:55:00,55.7,56.0,30.05,NW,311,0.0,0.0,99,0.00,,,0.00,weatherlink.com 1.10,2013-02-05 12:55:00,
2013-02-05 08:10:00,57.7,58.0,30.05,NW,311,0.0,1.0,99,0.00,,,0.00,weatherlink.com 1.10,2013-02-05 13:10:00,
2013-02-05 08:25:00,59.6,59.0,30.05,NNE,27,0.0,1.0,97,0.00,,,0.00,weatherlink.com 1.10,2013-02-05 13:25:00,
2013-02-05 08:40:00,62.6,60.0,30.05,NNE,27,0.0,0.0,90,0.00,,,0.00,weatherlink.com 1.10,2013-02-05 13:40:00,
2013-02-05 08:55:00,66.0,61.0,30.06,NNE,27,0.0,1.0,83,0.00,,,0.00,weatherlink.com 1.10,2013-02-05 13:55:00,
2013-02-05 09:10:00,68.8,60.0,30.06,ENE,73,0.0,1.0,74,0.00,,,0.00,weatherlink.com 1.10,2013-02-05 14:10:00,
2013-02-05 09:25:00,70.4,61.0,30.06,East,81,0.0,1.0,71,0.00,,,0.00,weatherlink.com 1.10,2013-02-05 14:25:00,
2013-02-05 09:40:00,72.0,60.0,30.06,SSE,148,1.0,3.0,65,0.00,,,0.00,weatherlink.com 1.10,2013-02-05 14:40:00,
2013-02-05 09:55:00,72.9,59.0,30.06,South,170,2.0,5.0,63,0.00,,,0.00,weatherlink.com 1.10,2013-02-05 14:55:00,
2013-02-05 10:10:00,73.2,59.0,30.06,East,101,3.0,4.0,61,0.00,,,0.00,weatherlink.com 1.10,2013-02-05 15:10:00,
2013-02-05 10:25:00,74.5,60.0,30.06,South,175,2.0,5.0,61,0.00,,,0.00,weatherlink.com 1.10,2013-02-05 15:25:00,
2013-02-05 10:40:00,75.0,59.0,30.06,East,97,4.0,7.0,57,0.00,,,0.00,weatherlink.com 1.10,2013-02-05 15:40:00,
2013-02-05 10:55:00,75.5,59.0,30.06,SE,124,3.0,6.0,57,0.00,,,0.00,weatherlink.com 1.10,2013-02-05 15:55:00,
2013-02-05 11:10:00,75.9,59.0,30.06,SE,128,1.0,6.0,56,0.00,,,0.00,weatherlink.com 1.10,2013-02-05 16:10:00,
2013-02-05 11:25:00,75.9,58.0,30.05,ENE,65,0.0,6.0,55,0.00,,,0.00,weatherlink.com 1.10,2013-02-05 16:25:00,
2013-02-05 11:41:00,76.2,59.0,30.05,SSE,163,1.0,8.0,56,0.00,,,0.00,weatherlink.com 1.10,2013-02-05 16:41:00,
2013-02-05 11:56:00,77.2,60.0,30.04,South,177,1.0,7.0,56,0.00,,,0.00,weatherlink.com 1.10,2013-02-05 16:56:00,
2013-02-05 12:54:00,79.1,60.0,30.02,NNW,330,4.0,8.0,53,0.00,,,0.00,weatherlink.com 1.10,2013-02-05 17:54:00,
2013-02-05 13:11:00,80.3,60.0,30.01,SW,225,2.0,4.0,51,0.00,,,0.00,weatherlink.com 1.10,2013-02-05 18:11:00,
2013-02-05 13:26:00,79.2,59.0,30.01,NW,316,2.0,3.0,50,0.00,,,0.00,weatherlink.com 1.10,2013-02-05 18:26:00,
2013-02-05 13:41:00,79.0,61.0,30.00,East,86,1.0,2.0,54,0.00,,,0.00,weatherlink.com 1.10,2013-02-05 18:41:00,
2013-02-05 13:56:00,79.4,62.0,30.00,WSW,248,0.0,2.0,56,0.00,,,0.00,weatherlink.com 1.10,2013-02-05 18:56:00,
2013-02-05 14:11:00,78.8,63.0,30.00,SE,131,2.0,4.0,58,0.00,,,0.00,weatherlink.com 1.10,2013-02-05 19:11:00,
2013-02-05 14:26:00,77.0,63.0,30.00,SE,124,1.0,5.0,62,0.00,,,0.00,weatherlink.com 1.10,2013-02-05 19:26:00,
2013-02-05 14:41:00,76.5,63.0,29.99,SE,134,2.0,9.0,64,0.00,,,0.00,weatherlink.com 1.10,2013-02-05 19:41:00,
2013-02-05 14:56:00,76.2,64.0,29.99,South,172,0.0,6.0,65,0.00,,,0.00,weatherlink.com 1.10,2013-02-05 19:56:00,
2013-02-05 15:11:00,76.7,63.0,29.99,ESE,113,5.0,7.0,63,0.00,,,0.00,weatherlink.com 1.10,2013-02-05 20:11:00,
2013-02-05 15:26:00,76.7,63.0,29.99,ESE,117,4.0,8.0,63,0.00,,,0.00,weatherlink.com 1.10,2013-02-05 20:26:00,
2013-02-05 15:41:00,77.0,63.0,29.98,SE,126,3.0,6.0,63,0.00,,,0.00,weatherlink.com 1.10,2013-02-05 20:41:00,
2013-02-05 15:56:00,77.1,63.0,29.98,SSE,153,3.0,6.0,63,0.00,,,0.00,weatherlink.com 1.10,2013-02-05 20:56:00,
2013-02-05 16:11:00,75.4,63.0,29.98,SSE,162,4.0,7.0,66,0.00,,,0.00,weatherlink.com 1.10,2013-02-05 21:11:00,
2013-02-05 16:26:00,75.5,64.0,29.98,SSE,156,1.0,7.0,67,0.00,,,0.00,weatherlink.com 1.10,2013-02-05 21:26:00,
2013-02-05 16:41:00,75.1,64.0,29.98,SSE,161,1.0,7.0,69,0.00,,,0.00,weatherlink.com 1.10,2013-02-05 21:41:00,
2013-02-05 16:56:00,74.6,65.0,29.99,SE,130,3.0,7.0,71,0.00,,,0.00,weatherlink.com 1.10,2013-02-05 21:56:00,
2013-02-05 17:11:00,74.4,64.0,29.98,ESE,107,6.0,7.0,71,0.00,,,0.00,weatherlink.com 1.10,2013-02-05 22:11:00,
2013-02-05 17:26:00,73.9,64.0,29.98,SE,146,3.0,8.0,71,0.00,,,0.00,weatherlink.com 1.10,2013-02-05 22:26:00,
2013-02-05 17:41:00,73.3,63.0,29.98,ESE,123,4.0,6.0,70,0.00,,,0.00,weatherlink.com 1.10,2013-02-05 22:41:00,
2013-02-05 17:56:00,73.0,63.0,29.98,ESE,103,2.0,5.0,70,0.00,,,0.00,weatherlink.com 1.10,2013-02-05 22:56:00,
2013-02-05 18:11:00,72.2,63.0,29.98,ESE,113,2.0,4.0,72,0.00,,,0.00,weatherlink.com 1.10,2013-02-05 23:11:00,
2013-02-05 18:26:00,71.6,63.0,29.98,ESE,114,1.0,3.0,73,0.00,,,0.00,weatherlink.com 1.10,2013-02-05 23:26:00,
2013-02-05 18:41:00,71.1,62.0,29.98,SE,136,0.0,1.0,74,0.00,,,0.00,weatherlink.com 1.10,2013-02-05 23:41:00,
2013-02-05 18:57:00,70.6,62.0,29.99,ESE,108,1.0,1.0,75,0.00,,,0.00,weatherlink.com 1.10,2013-02-05 23:57:00,
2013-02-05 19:12:00,70.2,63.0,30.00,ESE,109,1.0,1.0,77,0.00,,,0.00,weatherlink.com 1.10,2013-02-06 00:12:00,
2013-02-05 19:27:00,69.4,63.0,30.00,ESE,120,0.0,1.0,79,0.00,,,0.00,weatherlink.com 1.10,2013-02-06 00:27:00,
2013-02-05 19:42:00,68.8,63.0,30.00,ESE,116,0.0,1.0,81,0.00,,,0.00,weatherlink.com 1.10,2013-02-06 00:42:00,
2013-02-05 19:57:00,68.1,62.0,30.01,ESE,120,0.0,1.0,82,0.00,,,0.00,weatherlink.com 1.10,2013-02-06 00:57:00,
2013-02-05 20:12:00,67.8,63.0,30.01,ESE,121,0.0,1.0,83,0.00,,,0.00,weatherlink.com 1.10,2013-02-06 01:12:00,
2013-02-05 20:27:00,67.8,63.0,30.01,East,90,0.0,1.0,83,0.00,,,0.00,weatherlink.com 1.10,2013-02-06 01:27:00,
2013-02-05 20:42:00,67.2,62.0,30.01,SE,134,1.0,1.0,84,0.00,,,0.00,weatherlink.com 1.10,2013-02-06 01:42:00,
2013-02-05 20:57:00,66.7,62.0,30.01,East,86,0.0,1.0,85,0.00,,,0.00,weatherlink.com 1.10,2013-02-06 01:57:00,
2013-02-05 21:12:00,65.9,62.0,30.01,East,100,1.0,1.0,87,0.00,,,0.00,weatherlink.com 1.10,2013-02-06 02:12:00,
2013-02-05 21:27:00,65.4,62.0,30.02,East,101,0.0,1.0,88,0.00,,,0.00,weatherlink.com 1.10,2013-02-06 02:27:00,
2013-02-05 21:42:00,64.6,61.0,30.02,ESE,103,0.0,1.0,89,0.00,,,0.00,weatherlink.com 1.10,2013-02-06 02:42:00,
2013-02-05 21:57:00,64.2,61.0,30.02,ESE,107,0.0,1.0,90,0.00,,,0.00,weatherlink.com 1.10,2013-02-06 02:57:00,
2013-02-05 22:12:00,63.8,61.0,30.02,ESE,105,0.0,1.0,90,0.00,,,0.00,weatherlink.com 1.10,2013-02-06 03:12:00,
2013-02-05 22:27:00,63.4,61.0,30.03,ESE,115,0.0,1.0,91,0.00,,,0.00,weatherlink.com 1.10,2013-02-06 03:27:00,
2013-02-05 22:42:00,62.9,61.0,30.03,ESE,106,0.0,1.0,92,0.00,,,0.00,weatherlink.com 1.10,2013-02-06 03:42:00,
2013-02-05 22:57:00,62.7,61.0,30.03,East,97,1.0,1.0,93,0.00,,,0.00,weatherlink.com 1.10,2013-02-06 03:57:00,
2013-02-05 23:12:00,62.5,61.0,30.03,ESE,105,0.0,0.0,93,0.00,,,0.00,weatherlink.com 1.10,2013-02-06 04:12:00,
2013-02-05 23:27:00,62.0,60.0,30.03,ESE,111,0.0,0.0,93,0.00,,,0.00,weatherlink.com 1.10,2013-02-06 04:27:00,
2013-02-05 23:42:00,61.4,59.0,30.03,ESE,111,0.0,0.0,93,0.00,,,0.00,weatherlink.com 1.10,2013-02-06 04:42:00,
2013-02-05 23:57:00,60.9,59.0,30.03,ESE,111,0.0,0.0,94,0.00,,,0.00,weatherlink.com 1.10,2013-02-06 04:57:00,